createdAt,value
2018-08-09T00:00:15.056Z,28.50
2018-08-09T00:02:43.604Z,28.50
2018-08-09T00:05:12.191Z,28.40
2018-08-09T00:07:40.603Z,28.50
2018-08-09T00:10:09.025Z,28.40
2018-08-09T00:12:37.457Z,28.40
2018-08-09T00:15:05.944Z,28.40
2018-08-09T00:17:34.678Z,28.40
2018-08-09T00:20:03.693Z,28.40
2018-08-09T00:22:33.097Z,28.40
2018-08-09T00:25:01.512Z,28.40
2018-08-09T00:27:29.927Z,28.30
2018-08-09T00:29:58.658Z,28.30
2018-08-09T00:32:27.287Z,28.30
2018-08-09T00:34:55.702Z,28.30
2018-08-09T00:37:24.292Z,28.30
2018-08-09T00:39:53.109Z,28.30
2018-08-09T00:42:21.507Z,28.30
2018-08-09T00:44:50.551Z,28.30
2018-08-09T00:47:19.248Z,28.20
2018-08-09T00:49:47.815Z,28.30
2018-08-09T00:52:16.413Z,28.20
2018-08-09T00:54:44.909Z,28.20
2018-08-09T00:57:13.317Z,28.20
2018-08-09T00:59:42.331Z,28.20
2018-08-09T01:02:10.720Z,28.10
2018-08-09T01:04:39.188Z,28.10
2018-08-09T01:07:07.584Z,28.10
2018-08-09T01:09:36.004Z,28.10
2018-08-09T01:12:04.820Z,28.10
2018-08-09T01:14:33.274Z,28.10
2018-08-09T01:17:01.885Z,28.10
2018-08-09T01:19:30.402Z,28.10
2018-08-09T01:21:59.536Z,28.10
2018-08-09T01:24:28.715Z,28.10
2018-08-09T01:26:57.344Z,28.10
2018-08-09T01:29:25.935Z,28.10
2018-08-09T01:31:54.409Z,28.10
2018-08-09T01:34:22.776Z,28.10
2018-08-09T01:36:51.385Z,28.00
2018-08-09T01:39:19.873Z,28.10
2018-08-09T01:41:59.921Z,28.10
2018-08-09T01:44:28.545Z,28.10
2018-08-09T01:46:57.024Z,28.00
2018-08-09T01:49:25.467Z,28.00
2018-08-09T01:51:53.990Z,28.00
2018-08-09T01:54:29.032Z,27.90
2018-08-09T01:56:57.560Z,28.00
2018-08-09T01:59:26.140Z,28.00
2018-08-09T02:01:54.687Z,27.90
2018-08-09T02:04:23.136Z,27.90
2018-08-09T02:06:51.635Z,27.90
2018-08-09T02:09:25.416Z,27.90
2018-08-09T02:11:53.920Z,27.90
2018-08-09T02:14:22.354Z,27.90
2018-08-09T02:16:51.058Z,27.90
2018-08-09T02:19:19.437Z,27.80
2018-08-09T02:21:48.136Z,27.90
2018-08-09T02:24:16.705Z,27.90
2018-08-09T02:26:45.117Z,27.80
2018-08-09T02:29:13.831Z,27.80
2018-08-09T02:31:42.437Z,27.80
2018-08-09T02:34:10.853Z,27.80
2018-08-09T02:36:39.280Z,27.80
2018-08-09T02:39:09.545Z,27.80
2018-08-09T02:41:37.992Z,27.80
2018-08-09T02:44:06.627Z,27.80
2018-08-09T02:46:35.980Z,27.80
2018-08-09T02:49:04.459Z,27.80
2018-08-09T02:51:33.448Z,27.80
2018-08-09T02:54:01.833Z,27.80
2018-08-09T02:56:30.404Z,27.80
2018-08-09T02:58:59.137Z,27.80
2018-08-09T03:01:28.322Z,27.80
2018-08-09T03:03:56.896Z,27.80
2018-08-09T03:06:25.380Z,27.70
2018-08-09T03:08:53.830Z,27.70
2018-08-09T03:11:22.384Z,27.70
2018-08-09T03:13:50.977Z,27.70
2018-08-09T03:16:19.536Z,27.70
2018-08-09T03:18:47.998Z,27.70
2018-08-09T03:21:16.516Z,27.70
2018-08-09T03:23:45.043Z,27.70
2018-08-09T03:26:13.881Z,27.70
2018-08-09T03:28:49.315Z,27.70
2018-08-09T03:31:17.804Z,27.70
2018-08-09T03:33:46.285Z,27.60
2018-08-09T03:36:14.788Z,27.70
2018-08-09T03:38:43.638Z,27.60
2018-08-09T03:41:12.845Z,27.60
2018-08-09T03:43:41.445Z,27.70
2018-08-09T03:46:09.921Z,27.60
2018-08-09T03:48:38.784Z,27.60
2018-08-09T03:51:07.438Z,27.60
2018-08-09T03:53:35.860Z,27.60
2018-08-09T03:56:04.371Z,27.60
2018-08-09T03:58:32.905Z,27.60
2018-08-09T04:01:01.440Z,27.60
2018-08-09T04:03:30.043Z,27.60
2018-08-09T04:05:58.562Z,27.60
2018-08-09T04:08:27.448Z,27.60
2018-08-09T04:10:56.039Z,27.60
2018-08-09T04:13:24.582Z,27.60
2018-08-09T04:15:53.305Z,27.50
2018-08-09T04:18:21.809Z,27.50
2018-08-09T04:20:50.398Z,27.50
2018-08-09T04:23:18.960Z,27.50
2018-08-09T04:25:48.033Z,27.50
2018-08-09T04:28:16.469Z,27.50
2018-08-09T04:30:44.872Z,27.50
2018-08-09T04:33:13.422Z,27.50
2018-08-09T04:35:42.030Z,27.40
2018-08-09T04:38:10.604Z,27.50
2018-08-09T04:40:39.471Z,27.40
2018-08-09T04:43:08.006Z,27.40
2018-08-09T04:45:36.386Z,27.40
2018-08-09T04:48:05.443Z,27.30
2018-08-09T04:50:34.180Z,27.20
2018-08-09T04:53:02.732Z,27.10
2018-08-09T04:55:31.157Z,27.10
2018-08-09T04:57:59.717Z,27.10
2018-08-09T05:00:28.126Z,27.10
2018-08-09T05:02:56.629Z,27.10
2018-08-09T05:05:25.214Z,27.20
2018-08-09T05:07:53.873Z,27.30
2018-08-09T05:10:22.507Z,27.30
2018-08-09T05:12:51.008Z,27.30
2018-08-09T05:15:19.519Z,27.30
2018-08-09T05:17:48.108Z,27.20
2018-08-09T05:20:17.596Z,27.20
2018-08-09T05:22:46.213Z,27.20
2018-08-09T05:25:14.613Z,27.20
2018-08-09T05:27:43.490Z,27.10
2018-08-09T05:30:12.620Z,27.10
2018-08-09T05:32:41.152Z,27.10
2018-08-09T05:35:09.736Z,27.10
2018-08-09T05:37:39.348Z,27.10
2018-08-09T05:40:08.209Z,27.10
2018-08-09T05:42:36.749Z,27.10
2018-08-09T05:45:05.672Z,27.10
2018-08-09T05:47:34.278Z,27.10
2018-08-09T05:50:02.773Z,27.10
2018-08-09T05:52:31.345Z,27.20
2018-08-09T05:54:59.785Z,27.10
2018-08-09T05:57:28.993Z,27.10
2018-08-09T05:59:57.482Z,27.10
2018-08-09T06:02:26.044Z,27.10
2018-08-09T06:04:54.848Z,27.10
2018-08-09T06:07:23.904Z,27.10
2018-08-09T06:09:52.416Z,27.10
2018-08-09T06:12:20.935Z,27.20
2018-08-09T06:14:50.116Z,27.20
2018-08-09T06:17:19.684Z,27.20
2018-08-09T06:19:48.277Z,27.10
2018-08-09T06:22:16.913Z,27.10
2018-08-09T06:24:45.495Z,27.10
2018-08-09T06:27:14.636Z,27.20
2018-08-09T06:29:43.220Z,27.10
2018-08-09T06:32:11.821Z,27.10
2018-08-09T06:34:40.332Z,27.10
2018-08-09T06:37:08.934Z,27.10
2018-08-09T06:39:37.368Z,27.10
2018-08-09T06:42:05.797Z,27.20
2018-08-09T06:44:34.445Z,27.20
2018-08-09T06:47:03.217Z,27.10
2018-08-09T06:49:32.446Z,27.20
2018-08-09T06:52:01.016Z,27.20
2018-08-09T06:54:29.621Z,27.20
2018-08-09T06:56:58.871Z,27.20
2018-08-09T06:59:27.274Z,27.20
2018-08-09T07:01:55.882Z,27.20
2018-08-09T07:04:24.467Z,27.10
2018-08-09T07:06:52.828Z,27.10
2018-08-09T07:09:21.543Z,27.10
2018-08-09T07:11:49.913Z,27.00
2018-08-09T07:14:18.299Z,27.00
2018-08-09T07:16:46.783Z,27.00
2018-08-09T07:19:15.364Z,26.90
2018-08-09T07:21:43.839Z,26.90
2018-08-09T07:24:12.267Z,26.90
2018-08-09T07:26:40.628Z,26.90
2018-08-09T07:29:08.983Z,26.90
2018-08-09T07:31:37.363Z,26.90
2018-08-09T07:34:05.792Z,26.90
2018-08-09T07:36:34.716Z,26.90
2018-08-09T07:39:03.224Z,26.90
2018-08-09T07:41:31.719Z,26.80
2018-08-09T07:44:00.302Z,26.80
2018-08-09T07:46:28.970Z,26.70
2018-08-09T07:48:57.509Z,26.70
2018-08-09T07:51:25.912Z,26.70
2018-08-09T07:53:54.606Z,26.70
2018-08-09T07:56:23.081Z,26.70
2018-08-09T07:58:51.665Z,26.60
2018-08-09T08:01:20.373Z,26.60
2018-08-09T08:03:49.220Z,26.60
2018-08-09T08:06:18.549Z,26.70
2018-08-09T08:08:47.469Z,26.70
2018-08-09T08:11:15.916Z,26.70
2018-08-09T08:13:44.572Z,26.70
2018-08-09T08:16:13.154Z,26.70
2018-08-09T08:18:41.784Z,26.80
2018-08-09T08:21:10.168Z,26.80
2018-08-09T08:23:38.540Z,26.80
2018-08-09T08:26:06.969Z,26.80
2018-08-09T08:28:35.400Z,26.80
2018-08-09T08:31:03.804Z,26.80
2018-08-09T08:33:38.878Z,26.80
2018-08-09T08:36:07.308Z,26.80
2018-08-09T08:38:35.712Z,26.70
2018-08-09T08:41:04.076Z,26.70
2018-08-09T08:43:32.452Z,26.70
2018-08-09T08:46:00.868Z,26.70
2018-08-09T08:48:29.204Z,26.70
2018-08-09T08:50:58.388Z,26.70
2018-08-09T08:53:26.750Z,26.70
2018-08-09T08:55:56.577Z,26.70
2018-08-09T08:58:25.145Z,26.70
2018-08-09T09:00:53.774Z,26.70
2018-08-09T09:03:22.249Z,26.70
2018-08-09T09:05:50.804Z,26.70
2018-08-09T09:08:19.180Z,26.70
2018-08-09T09:10:51.786Z,26.70
2018-08-09T09:13:20.380Z,26.70
2018-08-09T09:15:48.792Z,26.70
2018-08-09T09:18:17.185Z,26.70
2018-08-09T09:20:46.198Z,26.70
2018-08-09T09:23:14.969Z,26.70
2018-08-09T09:25:43.569Z,26.70
2018-08-09T09:28:12.048Z,26.70
2018-08-09T09:30:40.479Z,26.60
2018-08-09T09:33:08.902Z,26.60
2018-08-09T09:35:37.405Z,26.60
2018-08-09T09:38:06.034Z,26.60
2018-08-09T09:40:34.521Z,26.60
2018-08-09T09:43:02.901Z,26.60
2018-08-09T09:45:31.523Z,26.60
2018-08-09T09:47:59.944Z,26.60
2018-08-09T09:50:28.307Z,26.60
2018-08-09T09:52:56.694Z,26.60
2018-08-09T09:55:25.272Z,26.50
2018-08-09T09:57:53.615Z,26.50
2018-08-09T10:00:28.788Z,26.50
2018-08-09T10:02:57.147Z,26.50
2018-08-09T10:05:25.500Z,26.50
2018-08-09T10:07:54.057Z,26.50
2018-08-09T10:10:22.477Z,26.50
2018-08-09T10:12:50.826Z,26.50
2018-08-09T10:15:19.967Z,26.50
2018-08-09T10:17:48.678Z,26.50
2018-08-09T10:20:17.038Z,26.40
2018-08-09T10:22:45.575Z,26.40
2018-08-09T10:25:13.943Z,26.40
2018-08-09T10:27:42.428Z,26.40
2018-08-09T10:30:10.857Z,26.40
2018-08-09T10:32:39.214Z,26.40
2018-08-09T10:35:07.718Z,27.80
2018-08-09T10:37:36.092Z,26.30
2018-08-09T10:40:04.963Z,26.30
2018-08-09T10:42:33.500Z,26.30
2018-08-09T10:45:02.051Z,26.40
2018-08-09T10:47:30.460Z,26.30
2018-08-09T10:49:58.835Z,26.30
2018-08-09T10:52:27.225Z,26.30
2018-08-09T10:54:56.151Z,26.30
2018-08-09T10:57:25.600Z,26.30
2018-08-09T10:59:54.254Z,26.30
2018-08-09T11:02:22.760Z,26.40
2018-08-09T11:04:51.477Z,26.40
2018-08-09T11:07:19.966Z,26.40
2018-08-09T11:09:48.599Z,26.40
2018-08-09T11:12:17.064Z,26.40
2018-08-09T11:14:45.453Z,26.40
2018-08-09T11:17:13.821Z,26.40
2018-08-09T11:19:42.824Z,26.40
2018-08-09T11:22:11.268Z,26.40
2018-08-09T11:24:39.640Z,26.40
2018-08-09T11:27:08.044Z,26.40
2018-08-09T11:29:36.407Z,26.50
2018-08-09T11:32:05.677Z,26.50
2018-08-09T11:34:34.092Z,26.50
2018-08-09T11:37:02.560Z,26.50
2018-08-09T11:39:30.909Z,26.50
2018-08-09T11:41:59.462Z,26.50
2018-08-09T11:44:27.832Z,26.50
2018-08-09T11:46:56.223Z,26.50
2018-08-09T11:49:24.696Z,26.50
2018-08-09T11:51:53.290Z,26.60
2018-08-09T11:54:21.724Z,26.60
2018-08-09T11:56:50.727Z,26.60
2018-08-09T11:59:19.163Z,26.60
2018-08-09T12:01:47.612Z,26.70
2018-08-09T12:04:16.075Z,26.70
2018-08-09T12:06:44.451Z,26.70
2018-08-09T12:09:12.846Z,26.70
2018-08-09T12:11:41.443Z,26.70
2018-08-09T12:14:10.360Z,26.70
2018-08-09T12:16:45.746Z,26.70
2018-08-09T12:19:14.244Z,26.70
2018-08-09T12:21:43.479Z,26.70
2018-08-09T12:24:12.653Z,26.60
2018-08-09T12:26:41.652Z,26.60
2018-08-09T12:29:10.920Z,26.60
2018-08-09T12:31:39.348Z,26.60
2018-08-09T12:34:07.741Z,26.60
2018-08-09T12:36:37.028Z,26.60
2018-08-09T12:39:08.836Z,26.60
2018-08-09T12:41:37.379Z,26.60
2018-08-09T12:44:05.933Z,26.60
2018-08-09T12:46:34.355Z,26.60
2018-08-09T12:49:02.777Z,26.60
2018-08-09T12:51:31.350Z,26.70
2018-08-09T12:53:59.989Z,26.70
2018-08-09T12:56:28.468Z,26.70
2018-08-09T12:58:57.748Z,26.70
2018-08-09T13:01:26.500Z,26.70
2018-08-09T13:03:55.046Z,26.70
2018-08-09T13:06:23.473Z,26.70
2018-08-09T13:08:51.876Z,26.70
2018-08-09T13:11:21.731Z,26.70
2018-08-09T13:13:51.128Z,26.60
2018-08-09T13:16:19.718Z,26.60
2018-08-09T13:18:48.228Z,26.60
2018-08-09T13:21:17.372Z,26.50
2018-08-09T13:23:46.209Z,26.40
2018-08-09T13:26:14.661Z,26.40
2018-08-09T13:28:49.960Z,26.40
2018-08-09T13:31:18.510Z,26.40
2018-08-09T13:33:46.934Z,26.40
2018-08-09T13:36:15.361Z,26.40
2018-08-09T13:38:43.841Z,26.40
2018-08-09T13:41:12.316Z,26.30
2018-08-09T13:43:40.816Z,26.30
2018-08-09T13:46:09.231Z,26.30
2018-08-09T13:48:37.697Z,26.20
2018-08-09T13:51:06.466Z,26.20
2018-08-09T13:53:35.005Z,26.20
2018-08-09T13:56:03.677Z,26.20
2018-08-09T13:58:32.277Z,26.20
2018-08-09T14:01:01.377Z,26.20
2018-08-09T14:03:29.928Z,26.30
2018-08-09T14:05:58.492Z,26.30
2018-08-09T14:08:27.340Z,26.30
2018-08-09T14:10:56.829Z,26.30
2018-08-09T14:13:25.522Z,26.30
2018-08-09T14:15:54.521Z,26.30
2018-08-09T14:18:23.139Z,26.40
2018-08-09T14:20:51.546Z,26.40
2018-08-09T14:23:20.310Z,26.40
2018-08-09T14:25:49.366Z,26.40
2018-08-09T14:28:18.087Z,26.30
2018-08-09T14:30:46.816Z,26.40
2018-08-09T14:33:15.863Z,26.40
2018-08-09T14:35:44.365Z,26.40
2018-08-09T14:38:12.951Z,26.40
2018-08-09T14:40:41.384Z,26.30
2018-08-09T14:43:10.040Z,26.30
2018-08-09T14:45:38.655Z,26.30
2018-08-09T14:48:07.113Z,26.30
2018-08-09T14:50:35.696Z,26.40
2018-08-09T14:53:04.295Z,26.40
2018-08-09T14:55:32.880Z,26.30
2018-08-09T14:58:01.474Z,26.40
2018-08-09T15:00:29.945Z,26.40
2018-08-09T15:02:58.609Z,26.40
2018-08-09T15:05:27.527Z,26.40
2018-08-09T15:07:56.197Z,26.40
2018-08-09T15:10:24.766Z,26.40
2018-08-09T15:12:53.297Z,26.40
2018-08-09T15:15:21.904Z,26.40
2018-08-09T15:17:51.080Z,26.40
2018-08-09T15:20:20.113Z,26.40
2018-08-09T15:22:48.530Z,26.40
2018-08-09T15:25:17.151Z,26.30
2018-08-09T15:27:45.720Z,26.30
2018-08-09T15:30:19.804Z,26.30
2018-08-09T15:32:49.069Z,26.20
2018-08-09T15:35:18.227Z,26.20
2018-08-09T15:37:46.979Z,26.20
2018-08-09T15:40:16.095Z,26.20
2018-08-09T15:42:44.533Z,26.20
2018-08-09T15:45:14.616Z,26.20
2018-08-09T15:47:43.490Z,26.20
2018-08-09T15:50:15.157Z,26.20
2018-08-09T15:52:43.541Z,26.20
2018-08-09T15:55:12.720Z,26.20
2018-08-09T15:57:41.153Z,26.20
2018-08-09T16:00:13.454Z,26.10
2018-08-09T16:02:41.925Z,26.10
2018-08-09T16:05:10.641Z,26.10
2018-08-09T16:07:39.688Z,26.10
2018-08-09T16:10:12.227Z,26.10
2018-08-09T16:12:40.882Z,26.10
2018-08-09T16:15:12.708Z,26.00
2018-08-09T16:17:41.175Z,26.00
2018-08-09T16:20:10.847Z,26.00
2018-08-09T16:22:39.427Z,26.00
2018-08-09T16:25:10.261Z,26.00
2018-08-09T16:27:39.132Z,26.10
2018-08-09T16:30:13.278Z,26.10
2018-08-09T16:32:42.252Z,26.10
2018-08-09T16:35:11.662Z,26.00
2018-08-09T16:37:40.971Z,26.00
2018-08-09T16:40:11.881Z,26.00
2018-08-09T16:42:41.052Z,26.10
2018-08-09T16:45:10.566Z,26.10
2018-08-09T16:47:39.211Z,26.20
2018-08-09T16:50:08.725Z,26.20
2018-08-09T16:52:37.440Z,26.20
2018-08-09T16:55:08.184Z,26.30
2018-08-09T16:57:36.652Z,26.30
2018-08-09T17:00:08.105Z,26.30
2018-08-09T17:02:37.333Z,26.30
2018-08-09T17:05:08.272Z,26.30
2018-08-09T17:07:36.785Z,26.30
2018-08-09T17:10:05.525Z,26.30
2018-08-09T17:12:34.192Z,26.40
2018-08-09T17:15:02.778Z,26.40
2018-08-09T17:17:31.309Z,26.40
2018-08-09T17:19:59.800Z,26.40
2018-08-09T17:22:28.601Z,26.40
2018-08-09T17:24:57.461Z,26.30
2018-08-09T17:27:25.902Z,26.30
2018-08-09T17:29:54.570Z,26.30
2018-08-09T17:32:23.404Z,26.30
2018-08-09T17:34:52.678Z,26.30
2018-08-09T17:37:22.255Z,26.30
2018-08-09T17:39:51.684Z,26.30
2018-08-09T17:42:20.712Z,26.30
2018-08-09T17:44:49.383Z,26.30
2018-08-09T17:47:18.347Z,26.20
2018-08-09T17:49:46.901Z,26.10
2018-08-09T17:52:15.607Z,26.00
2018-08-09T17:54:44.465Z,25.90
2018-08-09T17:57:12.943Z,25.90
2018-08-09T17:59:41.506Z,25.80
2018-08-09T18:02:10.066Z,25.80
2018-08-09T18:04:39.150Z,25.80
2018-08-09T18:07:07.771Z,25.80
2018-08-09T18:09:36.893Z,25.80
2018-08-09T18:12:05.650Z,25.80
2018-08-09T18:14:34.440Z,25.70
2018-08-09T18:17:02.832Z,25.70
2018-08-09T18:19:31.757Z,25.70
2018-08-09T18:22:00.805Z,25.70
2018-08-09T18:24:29.254Z,25.70
2018-08-09T18:26:57.825Z,25.70
2018-08-09T18:29:26.930Z,25.70
2018-08-09T18:31:55.471Z,25.70
2018-08-09T18:34:24.382Z,25.70
2018-08-09T18:36:53.161Z,25.60
2018-08-09T18:39:21.708Z,25.60
2018-08-09T18:41:51.044Z,25.60
2018-08-09T18:44:19.797Z,25.60
2018-08-09T18:46:48.534Z,25.60
2018-08-09T18:49:17.054Z,25.60
2018-08-09T18:51:45.796Z,25.60
2018-08-09T18:54:14.419Z,25.50
2018-08-09T18:56:42.843Z,25.50
2018-08-09T18:59:11.580Z,25.50
2018-08-09T19:01:40.162Z,25.60
2018-08-09T19:04:08.582Z,25.70
2018-08-09T19:06:37.218Z,25.80
2018-08-09T19:09:08.179Z,25.90
2018-08-09T19:11:36.702Z,26.00
2018-08-09T19:14:05.451Z,26.00
2018-08-09T19:16:34.133Z,26.10
2018-08-09T19:19:02.617Z,26.10
2018-08-09T19:21:31.173Z,26.10
2018-08-09T19:23:59.838Z,26.20
2018-08-09T19:26:28.620Z,26.20
2018-08-09T19:28:57.216Z,26.20
2018-08-09T19:31:26.006Z,26.20
2018-08-09T19:34:01.345Z,26.20
2018-08-09T19:36:30.305Z,26.20
2018-08-09T19:38:59.263Z,26.10
2018-08-09T19:41:27.817Z,26.00
2018-08-09T19:43:56.743Z,26.00
2018-08-09T19:46:25.696Z,25.90
2018-08-09T19:48:54.180Z,25.90
2018-08-09T19:51:22.631Z,25.90
2018-08-09T19:53:51.451Z,25.80
2018-08-09T19:56:20.030Z,25.80
2018-08-09T19:58:48.786Z,25.80
2018-08-09T20:01:17.338Z,25.80
2018-08-09T20:03:45.847Z,25.80
2018-08-09T20:06:14.419Z,25.70
2018-08-09T20:08:43.042Z,25.70
2018-08-09T20:11:11.475Z,25.70
2018-08-09T20:13:40.222Z,25.70
2018-08-09T20:16:08.828Z,25.80
2018-08-09T20:18:37.299Z,25.70
2018-08-09T20:21:09.995Z,25.70
2018-08-09T20:23:38.627Z,25.70
2018-08-09T20:26:07.746Z,25.60
2018-08-09T20:28:36.233Z,25.60
2018-08-09T20:31:04.624Z,25.60
2018-08-09T20:33:33.180Z,25.60
2018-08-09T20:36:01.749Z,25.60
2018-08-09T20:38:30.462Z,25.50
2018-08-09T20:40:59.196Z,25.50
2018-08-09T20:43:27.650Z,25.50
2018-08-09T20:45:56.359Z,25.40
2018-08-09T20:48:24.987Z,25.40
2018-08-09T20:50:53.726Z,25.40
2018-08-09T20:53:22.177Z,25.40
2018-08-09T20:55:50.624Z,25.40
2018-08-09T20:58:19.644Z,25.30
2018-08-09T21:00:48.099Z,25.30
2018-08-09T21:03:16.907Z,25.30
2018-08-09T21:05:45.493Z,25.30
2018-08-09T21:08:14.228Z,25.20
2018-08-09T21:10:42.892Z,25.10
2018-08-09T21:13:11.728Z,25.00
2018-08-09T21:15:40.235Z,25.00
2018-08-09T21:18:09.232Z,25.00
2018-08-09T21:20:37.686Z,25.00
2018-08-09T21:23:06.233Z,24.90
2018-08-09T21:25:34.758Z,24.90
2018-08-09T21:28:03.212Z,24.90
2018-08-09T21:30:31.997Z,24.90
2018-08-09T21:33:01.540Z,24.90
2018-08-09T21:35:30.198Z,24.90
2018-08-09T21:37:58.791Z,24.90
2018-08-09T21:40:27.861Z,24.90
2018-08-09T21:42:56.978Z,24.90
2018-08-09T21:45:26.279Z,25.00
2018-08-09T21:47:55.171Z,25.00
2018-08-09T21:50:23.815Z,25.00
2018-08-09T21:52:52.377Z,25.00
2018-08-09T21:55:21.027Z,25.00
2018-08-09T21:57:49.485Z,25.00
2018-08-09T22:00:57.631Z,25.10
2018-08-09T22:03:28.629Z,25.10
2018-08-09T22:06:05.064Z,25.00
2018-08-09T22:08:38.876Z,25.10
2018-08-09T22:11:13.854Z,25.10
2018-08-09T22:13:47.755Z,25.10
2018-08-09T22:16:21.502Z,25.10
2018-08-09T22:18:55.365Z,25.10
2018-08-09T22:21:29.107Z,25.10
2018-08-09T22:23:57.660Z,25.10
2018-08-09T22:26:26.090Z,25.10
2018-08-09T22:28:54.664Z,25.10
2018-08-09T22:31:23.176Z,25.10
2018-08-09T22:33:52.233Z,25.20
2018-08-09T22:36:21.323Z,25.10
2018-08-09T22:38:51.538Z,25.10
2018-08-09T22:41:19.928Z,25.10
2018-08-09T22:43:49.733Z,25.10
2018-08-09T22:46:18.498Z,25.00
2018-08-09T22:48:47.202Z,24.90
2018-08-09T22:51:16.023Z,24.90
2018-08-09T22:53:53.028Z,24.90
2018-08-09T22:56:24.231Z,24.90
2018-08-09T22:59:41.993Z,24.90
2018-08-09T23:02:11.238Z,24.90
2018-08-09T23:04:39.917Z,24.80
2018-08-09T23:07:09.644Z,24.80
2018-08-09T23:09:38.365Z,24.80
2018-08-09T23:12:11.616Z,24.80
2018-08-09T23:14:46.929Z,24.80
2018-08-09T23:17:15.459Z,24.80
2018-08-09T23:19:44.090Z,24.80
2018-08-09T23:22:17.045Z,24.80
2018-08-09T23:24:45.490Z,24.80
2018-08-09T23:27:14.127Z,24.80
2018-08-09T23:29:42.721Z,24.80
2018-08-09T23:32:11.123Z,24.80
2018-08-09T23:34:39.676Z,24.80
2018-08-09T23:37:08.061Z,24.80
2018-08-09T23:39:36.587Z,24.80
2018-08-09T23:42:05.149Z,24.80
2018-08-09T23:44:33.677Z,24.80
2018-08-09T23:47:02.841Z,24.80
2018-08-09T23:49:31.487Z,24.80
2018-08-09T23:51:59.974Z,24.80
2018-08-09T23:54:28.727Z,24.80
2018-08-09T23:56:57.242Z,24.80
2018-08-09T23:59:25.923Z,24.80
